createdAt,value
2022-11-06T00:00:34.771Z,100197.91
2022-11-06T00:03:03.628Z,100112.69
2022-11-06T00:05:49.905Z,100111.75
2022-11-06T00:08:26.997Z,100107.53
2022-11-06T00:10:55.281Z,100136.22
2022-11-06T00:13:25.055Z,100087.47
2022-11-06T00:15:52.980Z,100127.38
2022-11-06T00:18:21.250Z,100131.91
2022-11-06T00:20:49.355Z,100078.50
2022-11-06T00:23:17.301Z,100060.09
2022-11-06T00:25:45.449Z,100045.00
2022-11-06T00:28:13.691Z,100029.38
2022-11-06T00:30:43.221Z,100036.28
2022-11-06T00:33:11.732Z,100051.72
2022-11-06T00:35:40.434Z,100060.72
2022-11-06T00:38:08.570Z,100009.84
2022-11-06T00:40:36.492Z,99979.03
2022-11-06T00:43:04.503Z,100014.88
2022-11-06T00:45:32.522Z,100000.25
2022-11-06T00:48:01.873Z,100060.97
2022-11-06T00:50:29.868Z,100080.34
2022-11-06T00:52:57.931Z,100044.63
2022-11-06T00:55:26.032Z,100008.97
2022-11-06T00:57:53.970Z,100038.69
2022-11-06T01:00:22.556Z,100032.75
2022-11-06T01:02:51.052Z,100045.16
2022-11-06T01:05:20.787Z,100008.19
2022-11-06T01:07:48.817Z,99997.44
2022-11-06T01:10:16.989Z,100031.69
2022-11-06T01:12:45.156Z,100016.91
2022-11-06T01:15:13.334Z,100015.75
2022-11-06T01:17:41.297Z,99988.59
2022-11-06T01:20:10.505Z,99947.50
2022-11-06T01:22:39.943Z,99991.84
2022-11-06T01:25:09.579Z,99969.22
2022-11-06T01:27:37.560Z,99972.84
2022-11-06T01:30:06.681Z,99960.50
2022-11-06T01:32:35.604Z,99933.28
2022-11-06T01:35:03.554Z,99937.50
2022-11-06T01:37:31.455Z,99934.06
2022-11-06T01:40:00.784Z,99945.41
2022-11-06T01:42:28.775Z,99957.59
2022-11-06T01:45:26.813Z,99914.59
2022-11-06T01:47:54.728Z,99903.16
2022-11-06T01:50:23.267Z,99915.22
2022-11-06T01:52:52.794Z,99883.13
2022-11-06T01:55:26.895Z,99892.63
2022-11-06T01:57:56.307Z,99896.94
2022-11-06T02:00:24.830Z,99895.19
2022-11-06T02:02:53.320Z,99904.88
2022-11-06T02:05:21.656Z,99912.00
2022-11-06T02:07:50.268Z,99904.00
2022-11-06T02:10:18.682Z,99883.91
2022-11-06T02:12:55.820Z,99898.84
2022-11-06T02:15:34.544Z,99916.22
2022-11-06T02:18:30.234Z,99908.34
2022-11-06T02:21:40.921Z,99958.22
2022-11-06T02:24:26.629Z,99944.13
2022-11-06T02:27:04.352Z,99911.78
2022-11-06T02:29:36.357Z,99952.97
2022-11-06T02:32:12.302Z,99945.00
2022-11-06T02:34:42.496Z,99932.84
2022-11-06T02:37:16.211Z,99904.69
2022-11-06T02:39:47.299Z,99946.94
2022-11-06T02:42:20.094Z,99959.22
2022-11-06T02:44:51.863Z,99964.19
2022-11-06T02:47:22.369Z,99951.72
2022-11-06T02:49:55.064Z,99970.22
2022-11-06T02:52:26.503Z,99946.34
2022-11-06T02:54:59.104Z,99943.66
2022-11-06T02:57:31.412Z,99976.06
2022-11-06T03:00:03.855Z,99976.28
2022-11-06T03:02:37.216Z,99952.66
2022-11-06T03:05:10.064Z,99997.16
2022-11-06T03:07:44.221Z,99949.97
2022-11-06T03:10:13.380Z,99937.69
2022-11-06T03:12:53.085Z,99974.13
2022-11-06T03:15:27.681Z,99942.78
2022-11-06T03:18:03.293Z,99924.25
2022-11-06T03:20:37.074Z,99934.91
2022-11-06T03:23:13.416Z,99966.56
2022-11-06T03:25:47.640Z,99996.34
2022-11-06T03:28:28.392Z,99977.81
2022-11-06T03:30:59.643Z,99994.41
2022-11-06T03:33:35.435Z,99953.25
2022-11-06T03:36:07.500Z,99961.31
2022-11-06T03:38:42.211Z,99962.06
2022-11-06T03:41:15.957Z,99999.66
2022-11-06T03:43:50.205Z,99957.75
2022-11-06T03:46:25.030Z,99939.63
2022-11-06T03:49:02.080Z,99959.69
2022-11-06T03:51:35.174Z,99941.34
2022-11-06T03:54:08.077Z,99995.66
2022-11-06T03:56:42.018Z,99971.31
2022-11-06T03:59:15.141Z,99963.53
2022-11-06T04:01:47.763Z,99993.28
2022-11-06T04:04:22.926Z,100018.69
2022-11-06T04:06:57.396Z,99955.16
2022-11-06T04:09:59.197Z,99996.63
2022-11-06T04:12:58.774Z,99980.69
2022-11-06T04:15:34.213Z,99999.22
2022-11-06T04:18:02.153Z,100012.06
2022-11-06T04:21:04.561Z,99976.94
2022-11-06T04:23:39.340Z,99943.84
2022-11-06T04:26:33.896Z,99918.31
2022-11-06T04:29:11.712Z,99895.47
2022-11-06T04:31:48.267Z,99904.31
2022-11-06T04:34:22.159Z,99877.06
2022-11-06T04:36:59.306Z,99871.00
2022-11-06T04:39:31.162Z,99886.63
2022-11-06T04:42:05.726Z,99889.13
2022-11-06T04:44:38.343Z,99836.47
2022-11-06T04:47:11.165Z,99867.25
2022-11-06T04:49:41.833Z,99835.59
2022-11-06T04:52:13.859Z,99880.88
2022-11-06T04:54:42.280Z,99880.88
2022-11-06T04:57:10.324Z,99849.19
2022-11-06T04:59:39.208Z,99842.94
2022-11-06T05:02:08.704Z,99891.00
2022-11-06T05:04:36.699Z,99841.88
2022-11-06T05:07:04.698Z,99923.03
2022-11-06T05:09:32.704Z,99811.09
2022-11-06T05:12:00.711Z,99842.50
2022-11-06T05:14:28.731Z,99855.41
2022-11-06T05:16:56.688Z,99783.59
2022-11-06T05:19:26.095Z,99801.97
2022-11-06T05:22:11.667Z,99771.09
2022-11-06T05:24:39.526Z,99783.38
2022-11-06T05:27:07.714Z,99777.34
2022-11-06T05:29:35.595Z,99750.13
2022-11-06T05:32:03.585Z,99755.38
2022-11-06T05:34:33.094Z,99757.97
2022-11-06T05:37:01.094Z,99739.69
2022-11-06T05:39:29.185Z,99755.50
2022-11-06T05:41:58.274Z,99768.53
2022-11-06T05:44:26.421Z,99783.16
2022-11-06T05:46:54.398Z,99785.75
2022-11-06T05:49:22.286Z,99768.22
2022-11-06T05:51:51.691Z,99749.59
2022-11-06T05:54:19.883Z,99709.56
2022-11-06T05:56:48.043Z,99712.94
2022-11-06T05:59:16.351Z,99752.97
2022-11-06T06:01:44.503Z,99696.25
2022-11-06T06:04:12.562Z,99712.81
2022-11-06T06:06:40.802Z,99727.66
2022-11-06T06:09:10.363Z,99760.91
2022-11-06T06:11:38.427Z,99701.19
2022-11-06T06:14:06.497Z,99746.72
2022-11-06T06:16:34.544Z,99729.28
2022-11-06T06:19:02.915Z,99761.66
2022-11-06T06:21:31.416Z,99744.78
2022-11-06T06:23:59.377Z,99775.28
2022-11-06T06:26:28.844Z,99716.81
2022-11-06T06:28:56.888Z,99700.13
2022-11-06T06:31:25.222Z,99725.41
2022-11-06T06:33:53.307Z,99721.00
2022-11-06T06:36:21.351Z,99790.34
2022-11-06T06:38:49.344Z,99757.81
2022-11-06T06:41:17.380Z,99756.94
2022-11-06T06:43:49.558Z,99779.75
2022-11-06T06:46:18.348Z,99780.06
2022-11-06T06:48:46.643Z,99775.00
2022-11-06T06:51:17.372Z,99836.28
2022-11-06T06:53:47.780Z,99780.19
2022-11-06T06:56:16.157Z,99816.16
2022-11-06T06:58:44.459Z,99887.00
2022-11-06T07:01:14.202Z,99828.97
2022-11-06T07:03:42.883Z,99870.22
2022-11-06T07:06:11.143Z,99836.28
2022-11-06T07:08:39.362Z,99824.78
2022-11-06T07:11:10.370Z,99842.41
2022-11-06T07:13:38.727Z,99880.75
2022-11-06T07:16:09.180Z,99862.34
2022-11-06T07:18:40.083Z,99851.25
2022-11-06T07:21:09.736Z,99830.34
2022-11-06T07:23:37.957Z,99849.72
2022-11-06T07:26:06.938Z,99885.47
2022-11-06T07:28:34.898Z,99904.00
2022-11-06T07:31:04.878Z,99892.59
2022-11-06T07:33:33.060Z,99924.69
2022-11-06T07:36:06.017Z,99913.59
2022-11-06T07:38:35.326Z,99931.81
2022-11-06T07:41:04.859Z,99935.25
2022-11-06T07:43:33.471Z,99952.69
2022-11-06T07:46:02.374Z,99941.94
2022-11-06T07:48:31.519Z,99967.28
2022-11-06T07:50:59.708Z,99989.91
2022-11-06T07:53:29.375Z,100009.31
2022-11-06T07:55:57.721Z,99993.47
2022-11-06T07:58:28.683Z,100020.44
2022-11-06T08:01:02.640Z,100050.94
2022-11-06T08:03:30.803Z,100073.91
2022-11-06T08:05:59.336Z,100066.56
2022-11-06T08:08:31.434Z,100110.47
2022-11-06T08:11:03.370Z,100085.75
2022-11-06T08:13:33.941Z,100134.28
2022-11-06T08:16:05.519Z,100137.72
2022-11-06T08:18:33.893Z,100129.00
2022-11-06T08:21:02.051Z,100107.13
2022-11-06T08:23:31.855Z,100170.78
2022-11-06T08:26:02.637Z,100189.22
2022-11-06T08:28:31.159Z,100203.16
2022-11-06T08:30:59.272Z,100234.84
2022-11-06T08:33:27.435Z,100249.78
2022-11-06T08:35:55.467Z,100252.81
2022-11-06T08:38:23.571Z,100291.69
2022-11-06T08:40:53.916Z,100261.66
2022-11-06T08:43:24.193Z,100311.66
2022-11-06T08:45:52.161Z,100315.69
2022-11-06T08:48:20.797Z,100306.06
2022-11-06T08:50:48.815Z,100301.44
2022-11-06T08:53:17.377Z,100314.63
2022-11-06T08:55:45.881Z,100272.50
2022-11-06T08:58:15.299Z,100273.38
2022-11-06T09:00:43.723Z,100279.53
2022-11-06T09:03:13.928Z,100297.97
2022-11-06T09:05:42.765Z,100235.66
2022-11-06T09:08:10.983Z,100249.72
2022-11-06T09:10:40.329Z,100203.25
2022-11-06T09:13:08.779Z,100231.34
2022-11-06T09:15:38.361Z,100253.06
2022-11-06T09:18:06.988Z,100222.16
2022-11-06T09:20:35.261Z,100257.19
2022-11-06T09:23:04.611Z,100244.88
2022-11-06T09:25:32.742Z,100260.75
2022-11-06T09:28:01.925Z,100255.25
2022-11-06T09:30:32.466Z,100258.47
2022-11-06T09:33:03.964Z,100282.13
2022-11-06T09:35:34.650Z,100290.78
2022-11-06T09:38:04.021Z,100288.97
2022-11-06T09:40:35.631Z,100286.13
2022-11-06T09:43:31.662Z,100320.16
2022-11-06T09:46:11.186Z,100345.53
2022-11-06T09:48:44.031Z,100341.09
2022-11-06T09:51:20.210Z,100374.25
2022-11-06T09:53:52.848Z,100401.50
2022-11-06T09:56:25.341Z,100443.53
2022-11-06T09:58:54.836Z,100368.97
2022-11-06T10:01:27.630Z,100347.81
2022-11-06T10:04:00.060Z,100417.09
2022-11-06T10:06:29.649Z,100381.84
2022-11-06T10:09:01.179Z,100404.00
2022-11-06T10:11:46.182Z,100358.06
2022-11-06T10:14:29.514Z,100427.47
2022-11-06T10:17:09.067Z,100413.41
2022-11-06T10:19:42.339Z,100451.78
2022-11-06T10:22:16.539Z,100384.00
2022-11-06T10:24:47.177Z,100427.22
2022-11-06T10:27:18.878Z,100405.09
2022-11-06T10:30:04.608Z,100433.28
2022-11-06T10:33:18.943Z,100404.97
2022-11-06T10:36:09.059Z,100435.88
2022-11-06T10:38:42.526Z,100381.31
2022-11-06T10:41:18.733Z,100393.28
2022-11-06T10:43:52.735Z,100335.31
2022-11-06T10:46:29.048Z,100372.13
2022-11-06T10:49:00.392Z,100393.09
2022-11-06T10:51:54.159Z,100430.59
2022-11-06T10:54:32.267Z,100461.59
2022-11-06T10:57:17.345Z,100462.34
2022-11-06T10:59:49.686Z,100501.72
2022-11-06T11:02:27.495Z,100424.13
2022-11-06T11:04:58.811Z,100430.91
2022-11-06T11:07:35.345Z,100485.41
2022-11-06T11:10:30.569Z,100442.28
2022-11-06T11:13:06.871Z,100434.16
2022-11-06T11:15:44.885Z,100499.47
2022-11-06T11:18:23.417Z,100422.06
2022-11-06T11:20:53.068Z,100419.22
2022-11-06T11:23:25.769Z,100386.59
2022-11-06T11:25:56.356Z,100374.06
2022-11-06T11:28:30.222Z,100378.50
2022-11-06T11:31:07.996Z,100397.28
2022-11-06T11:33:37.147Z,100385.94
2022-11-06T11:36:07.079Z,100368.22
2022-11-06T11:38:39.453Z,100414.47
2022-11-06T11:41:10.046Z,100432.09
2022-11-06T11:43:38.313Z,100407.66
2022-11-06T11:46:21.730Z,100378.56
2022-11-06T11:48:51.573Z,100360.84
2022-11-06T11:51:32.744Z,100366.94
2022-11-06T11:54:07.149Z,100378.16
2022-11-06T11:59:39.075Z,100385.50
2022-11-06T12:02:20.927Z,100435.66
2022-11-06T12:04:55.020Z,100463.31
2022-11-06T12:07:27.338Z,100444.72
2022-11-06T12:09:57.393Z,100371.53
2022-11-06T12:12:31.597Z,100377.69
2022-11-06T12:15:17.978Z,100358.00
2022-11-06T12:17:50.525Z,100395.00
2022-11-06T12:20:23.921Z,100383.84
2022-11-06T12:22:55.257Z,100398.84
2022-11-06T12:25:28.715Z,100366.00
2022-11-06T12:28:00.973Z,100353.03
2022-11-06T12:30:32.870Z,100361.78
2022-11-06T12:33:07.563Z,100338.75
2022-11-06T12:35:40.601Z,100350.84
2022-11-06T12:38:17.826Z,100377.00
2022-11-06T12:40:51.973Z,100350.84
2022-11-06T12:43:30.155Z,100349.16
2022-11-06T12:46:28.038Z,100267.34
2022-11-06T12:49:21.144Z,100306.97
2022-11-06T12:52:00.987Z,100263.66
2022-11-06T12:54:49.884Z,100265.41
2022-11-06T12:57:28.351Z,100268.72
2022-11-06T13:03:29.894Z,100216.16
2022-11-06T13:06:10.348Z,100240.88
2022-11-06T13:08:51.740Z,100226.41
2022-11-06T13:11:31.555Z,100259.88
2022-11-06T13:14:09.482Z,100267.97
2022-11-06T13:16:42.976Z,100313.66
2022-11-06T13:19:21.307Z,100289.88
2022-11-06T13:22:21.586Z,100285.22
2022-11-06T13:24:55.271Z,100326.44
2022-11-06T13:27:32.482Z,100322.72
2022-11-06T13:30:07.456Z,100238.38
2022-11-06T13:32:41.946Z,100272.81
2022-11-06T13:35:18.173Z,100278.63
2022-11-06T13:37:54.783Z,100308.03
2022-11-06T13:40:33.129Z,100324.56
2022-11-06T13:43:07.136Z,100270.22
2022-11-06T13:45:47.187Z,100262.69
2022-11-06T13:48:49.637Z,100244.97
2022-11-06T13:51:46.290Z,100233.84
2022-11-06T13:54:27.716Z,100256.84
2022-11-06T13:57:43.372Z,100266.56
2022-11-06T14:00:30.194Z,100240.81
2022-11-06T14:03:39.381Z,100266.97
2022-11-06T14:06:09.700Z,100191.50
2022-11-06T14:08:44.800Z,100246.53
2022-11-06T14:11:17.522Z,100200.00
2022-11-06T14:14:14.062Z,100195.59
2022-11-06T14:16:44.582Z,100232.50
2022-11-06T14:19:39.771Z,100207.66
2022-11-06T14:22:27.694Z,100185.13
2022-11-06T14:25:01.225Z,100209.47
2022-11-06T14:28:05.586Z,100226.09
2022-11-06T14:31:11.026Z,100199.03
2022-11-06T14:34:00.148Z,100196.34
2022-11-06T14:36:37.480Z,100239.06
2022-11-06T14:39:11.782Z,100227.84
2022-11-06T14:42:03.990Z,100233.25
2022-11-06T14:44:42.887Z,100216.50
2022-11-06T14:47:36.237Z,100226.34
2022-11-06T14:50:09.497Z,100204.44
2022-11-06T14:52:46.489Z,100227.09
2022-11-06T14:55:28.513Z,100203.13
2022-11-06T14:57:59.098Z,100234.75
2022-11-06T15:00:38.357Z,100232.03
2022-11-06T15:03:19.525Z,100231.28
2022-11-06T15:05:52.226Z,100244.22
2022-11-06T15:08:58.217Z,100213.81
2022-11-06T15:11:58.739Z,100226.63
2022-11-06T15:15:04.861Z,100207.31
2022-11-06T15:17:36.997Z,100207.31
2022-11-06T15:20:24.793Z,100161.78
2022-11-06T15:23:16.450Z,100209.88
2022-11-06T15:25:56.194Z,100196.09
2022-11-06T15:28:31.175Z,100181.56
2022-11-06T15:31:05.319Z,100156.94
2022-11-06T15:33:36.614Z,100095.16
2022-11-06T15:36:23.213Z,100124.19
2022-11-06T15:39:34.049Z,100070.78
2022-11-06T15:42:04.146Z,100081.59
2022-11-06T15:44:32.242Z,100109.13
2022-11-06T15:47:00.785Z,100001.91
2022-11-06T15:49:28.890Z,100000.94
2022-11-06T15:51:59.290Z,99955.47
2022-11-06T15:54:36.047Z,99946.16
2022-11-06T15:57:14.677Z,99855.88
2022-11-06T15:59:44.194Z,99873.72
2022-11-06T16:02:17.901Z,99814.13
2022-11-06T16:04:47.381Z,99821.78
2022-11-06T16:07:17.259Z,99688.25
2022-11-06T16:09:46.589Z,99643.75
2022-11-06T16:12:19.485Z,99598.53
2022-11-06T16:14:47.681Z,99540.66
2022-11-06T16:17:20.064Z,99547.78
2022-11-06T16:19:50.023Z,99599.78
2022-11-06T16:22:20.937Z,99590.44
2022-11-06T16:24:54.328Z,99542.63
2022-11-06T16:27:25.600Z,99517.25
2022-11-06T16:29:56.801Z,99491.78
2022-11-06T16:32:27.691Z,99501.69
2022-11-06T16:34:56.262Z,99507.56
2022-11-06T16:37:42.596Z,99516.38
2022-11-06T16:40:49.534Z,99492.34
2022-11-06T16:43:21.430Z,99524.69
2022-11-06T16:45:54.905Z,99528.09
2022-11-06T16:48:37.192Z,99498.34
2022-11-06T16:51:08.758Z,99498.22
2022-11-06T16:53:56.872Z,99496.25
2022-11-06T16:56:28.357Z,99474.94
2022-11-06T16:59:03.965Z,99463.91
2022-11-06T17:01:40.324Z,99495.03
2022-11-06T17:04:20.692Z,99456.56
2022-11-06T17:06:49.989Z,99508.25
2022-11-06T17:09:33.532Z,99505.56
2022-11-06T17:12:03.150Z,99465.13
2022-11-06T17:14:34.334Z,99470.28
2022-11-06T17:17:03.388Z,99495.53
2022-11-06T17:19:32.083Z,99496.03
2022-11-06T17:22:00.855Z,99476.69
2022-11-06T17:24:36.457Z,99495.78
2022-11-06T17:27:05.567Z,99497.75
2022-11-06T17:29:36.444Z,99466.16
2022-11-06T17:32:05.408Z,99453.66
2022-11-06T17:34:33.689Z,99430.88
2022-11-06T17:37:02.198Z,99470.59
2022-11-06T17:39:30.457Z,99468.50
2022-11-06T17:41:58.705Z,99396.72
2022-11-06T17:44:26.811Z,99382.06
2022-11-06T17:46:56.348Z,99339.94
2022-11-06T17:49:24.447Z,99345.69
2022-11-06T17:51:58.582Z,99339.94
2022-11-06T17:54:28.858Z,99369.56
2022-11-06T17:56:57.898Z,99352.41
2022-11-06T17:59:26.158Z,99412.78
2022-11-06T18:01:59.184Z,99390.75
2022-11-06T18:04:30.554Z,99396.88
2022-11-06T18:07:03.201Z,99375.94
2022-11-06T18:09:31.412Z,99378.84
2022-11-06T18:11:59.535Z,99437.03
2022-11-06T18:14:29.276Z,99444.38
2022-11-06T18:16:58.856Z,99431.50
2022-11-06T18:19:29.912Z,99435.81
2022-11-06T18:22:01.222Z,99459.44
2022-11-06T18:24:33.887Z,99446.44
2022-11-06T18:27:01.923Z,99397.34
2022-11-06T18:29:30.000Z,99405.44
2022-11-06T18:32:07.246Z,99411.06
2022-11-06T18:34:35.384Z,99439.72
2022-11-06T18:37:03.534Z,99448.88
2022-11-06T18:39:31.716Z,99416.66
2022-11-06T18:42:00.517Z,99467.66
2022-11-06T18:44:28.645Z,99385.09
2022-11-06T18:46:56.625Z,99448.88
2022-11-06T18:49:26.271Z,99462.00
2022-11-06T18:51:56.313Z,99467.63
2022-11-06T18:54:24.652Z,99479.88
2022-11-06T18:56:52.782Z,99462.34
2022-11-06T18:59:24.411Z,99436.25
2022-11-06T19:01:52.926Z,99431.88
2022-11-06T19:04:21.924Z,99465.03
2022-11-06T19:06:53.760Z,99421.44
2022-11-06T19:09:22.316Z,99486.97
2022-11-06T19:11:50.984Z,99471.53
2022-11-06T19:14:19.380Z,99500.94
2022-11-06T19:16:47.787Z,99504.00
2022-11-06T19:19:25.127Z,99536.22
2022-11-06T19:21:55.640Z,99522.50
2022-11-06T19:24:24.080Z,99564.41
2022-11-06T19:26:52.370Z,99555.25
2022-11-06T19:29:20.603Z,99567.59
2022-11-06T19:31:48.751Z,99586.97
2022-11-06T19:34:17.078Z,99548.47
2022-11-06T19:36:45.541Z,99537.22
2022-11-06T19:39:15.371Z,99558.91
2022-11-06T19:41:43.551Z,99566.25
2022-11-06T19:44:12.031Z,99630.75
2022-11-06T19:46:40.602Z,99614.94
2022-11-06T19:49:10.590Z,99573.84
2022-11-06T19:51:41.131Z,99578.38
2022-11-06T19:54:11.111Z,99602.91
2022-11-06T19:57:26.857Z,99599.34
2022-11-06T19:59:28.807Z,99634.53
2022-11-06T20:01:57.032Z,99609.28
2022-11-06T20:04:26.394Z,99631.34
2022-11-06T20:06:58.458Z,99658.56
2022-11-06T20:09:26.785Z,99674.25
2022-11-06T20:11:56.586Z,99661.25
2022-11-06T20:14:26.456Z,99660.25
2022-11-06T20:16:56.808Z,99690.22
2022-11-06T20:19:25.123Z,99650.94
2022-11-06T20:21:53.419Z,99658.03
2022-11-06T20:24:21.558Z,99680.88
2022-11-06T20:26:49.803Z,99688.00
2022-11-06T20:29:19.708Z,99669.56
2022-11-06T20:31:48.104Z,99730.56
2022-11-06T20:34:16.428Z,99762.97
2022-11-06T20:36:44.604Z,99715.97
2022-11-06T20:39:14.541Z,99692.03
2022-11-06T20:41:42.713Z,99693.88
2022-11-06T20:44:10.879Z,99699.03
2022-11-06T20:46:40.477Z,99753.31
2022-11-06T20:49:08.760Z,99696.56
2022-11-06T20:51:59.974Z,99715.97
2022-11-06T20:54:24.664Z,99735.09
2022-11-06T20:56:52.643Z,99733.63
2022-11-06T20:59:20.755Z,99723.78
2022-11-06T21:01:50.633Z,99730.91
2022-11-06T21:04:19.155Z,99761.84
2022-11-06T21:06:47.165Z,99743.66
2022-11-06T21:09:16.646Z,99775.09
2022-11-06T21:11:44.681Z,99760.22
2022-11-06T21:14:12.854Z,99799.78
2022-11-06T21:16:41.988Z,99782.09
2022-11-06T21:19:11.675Z,99799.56
2022-11-06T21:21:40.202Z,99803.56
2022-11-06T21:24:08.933Z,99809.47
2022-11-06T21:26:38.682Z,99865.44
2022-11-06T21:29:10.634Z,99858.56
2022-11-06T21:31:44.220Z,99850.19
2022-11-06T21:34:19.089Z,99846.00
2022-11-06T21:36:48.231Z,99866.25
2022-11-06T21:39:18.434Z,99875.75
2022-11-06T21:41:47.333Z,99895.88
2022-11-06T21:44:17.671Z,99921.94
2022-11-06T21:46:46.394Z,99903.63
2022-11-06T21:49:20.910Z,99921.09
2022-11-06T21:51:50.348Z,99936.81
2022-11-06T21:54:35.582Z,99927.34
2022-11-06T21:57:04.012Z,99969.34
2022-11-06T21:59:33.486Z,99937.88
2022-11-06T22:02:04.467Z,99945.03
2022-11-06T22:04:32.628Z,99914.28
2022-11-06T22:07:02.657Z,99960.50
2022-11-06T22:09:31.194Z,99953.41
2022-11-06T22:12:00.620Z,99922.78
2022-11-06T22:14:28.948Z,99957.06
2022-11-06T22:16:57.153Z,99949.97
2022-11-06T22:19:25.299Z,99977.44
2022-11-06T22:21:55.471Z,99963.56
2022-11-06T22:24:24.955Z,99950.50
2022-11-06T22:26:54.897Z,99967.84
2022-11-06T22:29:22.998Z,99973.50
2022-11-06T22:31:52.257Z,99995.78
2022-11-06T22:34:20.298Z,99967.97
2022-11-06T22:36:48.372Z,99952.13
2022-11-06T22:39:16.453Z,100005.38
2022-11-06T22:41:45.982Z,100014.34
2022-11-06T22:44:14.260Z,100044.06
2022-11-06T22:46:42.894Z,99978.44
2022-11-06T22:49:10.983Z,100003.00
2022-11-06T22:51:38.951Z,99984.06
2022-11-06T22:54:07.214Z,99968.09
2022-11-06T22:56:35.361Z,100049.94
2022-11-06T22:59:07.755Z,100040.13
2022-11-06T23:01:41.756Z,99978.03
2022-11-06T23:04:15.015Z,99987.50
2022-11-06T23:06:44.309Z,100008.66
2022-11-06T23:09:13.119Z,100009.75
2022-11-06T23:11:41.269Z,100035.06
2022-11-06T23:14:10.812Z,100027.91
2022-11-06T23:16:56.236Z,100026.22
2022-11-06T23:19:24.854Z,100001.50
2022-11-06T23:22:13.561Z,100001.72
2022-11-06T23:24:41.663Z,99996.59
2022-11-06T23:27:10.998Z,100036.03
2022-11-06T23:29:40.860Z,100021.03
2022-11-06T23:32:08.913Z,99971.88
2022-11-06T23:34:36.942Z,99996.25
2022-11-06T23:37:04.951Z,100009.50
2022-11-06T23:39:32.987Z,100015.97
2022-11-06T23:42:01.120Z,100012.53
2022-11-06T23:44:46.531Z,100054.38
2022-11-06T23:47:16.025Z,100096.44
2022-11-06T23:49:44.073Z,100043.03
2022-11-06T23:52:12.209Z,100077.47
2022-11-06T23:54:40.178Z,100055.44
2022-11-06T23:57:08.820Z,100028.28
2022-11-06T23:59:36.872Z,100052.88
